createdAt,value
2018-05-23T00:00:37.696Z,101519.03
2018-05-23T00:03:03.494Z,101524.02
2018-05-23T00:05:29.260Z,101522.90
2018-05-23T00:07:55.036Z,101524.87
2018-05-23T00:10:20.813Z,101528.67
2018-05-23T00:12:46.556Z,101532.20
2018-05-23T00:15:12.358Z,101529.92
2018-05-23T00:17:38.126Z,101532.08
2018-05-23T00:20:04.114Z,101535.19
2018-05-23T00:22:29.875Z,101535.94
2018-05-23T00:24:55.663Z,101538.47
2018-05-23T00:27:21.556Z,101534.84
2018-05-23T00:29:47.307Z,101538.20
2018-05-23T00:32:13.360Z,101531.11
2018-05-23T00:34:39.103Z,101539.80
2018-05-23T00:37:04.923Z,101552.91
2018-05-23T00:39:31.412Z,101548.22
2018-05-23T00:41:57.191Z,101545.97
2018-05-23T00:44:22.951Z,101546.26
2018-05-23T00:46:48.919Z,101548.36
2018-05-23T00:49:14.766Z,101545.63
2018-05-23T00:51:40.535Z,101559.50
2018-05-23T00:54:06.294Z,101550.80
2018-05-23T00:56:32.069Z,101552.28
2018-05-23T00:58:57.811Z,101558.05
2018-05-23T01:01:23.660Z,101567.19
2018-05-23T01:03:49.419Z,101567.29
2018-05-23T01:06:15.288Z,101566.68
2018-05-23T01:08:42.063Z,101567.81
2018-05-23T01:11:07.824Z,101567.68
2018-05-23T01:13:33.764Z,101562.62
2018-05-23T01:15:59.511Z,101564.48
2018-05-23T01:18:25.282Z,101568.55
2018-05-23T01:20:51.035Z,101569.10
2018-05-23T01:23:16.824Z,101571.91
2018-05-23T01:25:42.715Z,101582.07
2018-05-23T01:28:08.674Z,101578.66
2018-05-23T01:30:34.423Z,101575.42
2018-05-23T01:33:00.200Z,101575.81
2018-05-23T01:35:25.943Z,101585.72
2018-05-23T01:37:52.004Z,101590.26
2018-05-23T01:40:17.756Z,101586.58
2018-05-23T01:42:43.519Z,101590.71
2018-05-23T01:45:09.302Z,101592.64
2018-05-23T01:47:35.332Z,101589.06
2018-05-23T01:50:01.079Z,101590.19
2018-05-23T01:52:26.840Z,101590.89
2018-05-23T01:54:52.838Z,101591.34
2018-05-23T01:57:18.599Z,101599.08
2018-05-23T01:59:44.371Z,101606.33
2018-05-23T02:02:10.120Z,101597.80
2018-05-23T02:04:35.871Z,101602.19
2018-05-23T02:07:01.702Z,101601.93
2018-05-23T02:09:27.703Z,101600.31
2018-05-23T02:11:53.447Z,101601.09
2018-05-23T02:14:19.316Z,101604.22
2018-05-23T02:16:45.055Z,101600.95
2018-05-23T02:19:10.819Z,101600.27
2018-05-23T02:21:36.609Z,101602.66
2018-05-23T02:24:02.434Z,101606.27
2018-05-23T02:26:28.179Z,101610.45
2018-05-23T02:28:53.951Z,101604.55
2018-05-23T02:31:19.695Z,101612.07
2018-05-23T02:33:45.479Z,101611.45
2018-05-23T02:36:11.224Z,101610.34
2018-05-23T02:38:37.019Z,101609.73
2018-05-23T02:41:02.796Z,101617.33
2018-05-23T02:43:28.606Z,101614.91
2018-05-23T02:45:54.389Z,101617.34
2018-05-23T02:48:20.243Z,101620.69
2018-05-23T02:50:46.027Z,101619.07
2018-05-23T02:53:11.927Z,101619.80
2018-05-23T02:55:37.670Z,101630.28
2018-05-23T02:58:03.496Z,101631.82
2018-05-23T03:00:29.339Z,101627.81
2018-05-23T03:02:55.156Z,101635.65
2018-05-23T03:05:20.951Z,101637.19
2018-05-23T03:07:46.687Z,101641.42
2018-05-23T03:10:12.455Z,101650.61
2018-05-23T03:12:38.202Z,101643.80
2018-05-23T03:15:04.143Z,101647.50
2018-05-23T03:17:29.983Z,101645.55
2018-05-23T03:19:55.786Z,101646.93
2018-05-23T03:22:21.659Z,101642.98
2018-05-23T03:24:47.642Z,101653.05
2018-05-23T03:27:13.486Z,101659.02
2018-05-23T03:29:39.185Z,101659.92
2018-05-23T03:32:04.929Z,101660.22
2018-05-23T03:34:30.694Z,101664.45
2018-05-23T03:36:56.442Z,101663.45
2018-05-23T03:39:22.213Z,101669.78
2018-05-23T03:41:47.967Z,101669.03
2018-05-23T03:44:13.751Z,101663.87
2018-05-23T03:46:39.508Z,101668.33
2018-05-23T03:49:05.320Z,101683.34
2018-05-23T03:51:31.073Z,101689.93
2018-05-23T03:53:56.987Z,101684.16
2018-05-23T03:56:22.797Z,101684.92
2018-05-23T03:58:48.568Z,101690.41
2018-05-23T04:01:26.615Z,101694.98
2018-05-23T04:04:04.844Z,101696.61
2018-05-23T04:06:40.803Z,101700.92
2018-05-23T04:09:06.625Z,101704.73
2018-05-23T04:11:32.315Z,101706.41
2018-05-23T04:13:58.075Z,101707.01
2018-05-23T04:16:23.879Z,101712.20
2018-05-23T04:18:56.633Z,101713.30
2018-05-23T04:21:22.377Z,101715.69
2018-05-23T04:23:48.163Z,101718.17
2018-05-23T04:26:13.903Z,101713.82
2018-05-23T04:28:39.666Z,101713.10
2018-05-23T04:31:05.436Z,101717.78
2018-05-23T04:33:31.179Z,101723.88
2018-05-23T04:35:57.087Z,101723.48
2018-05-23T04:38:22.899Z,101729.58
2018-05-23T04:40:48.650Z,101727.83
2018-05-23T04:43:14.471Z,101732.73
2018-05-23T04:45:40.291Z,101731.94
2018-05-23T04:48:06.036Z,101739.59
2018-05-23T04:50:31.803Z,101747.05
2018-05-23T04:52:57.548Z,101746.95
2018-05-23T04:55:23.584Z,101749.73
2018-05-23T04:57:49.366Z,101750.14
2018-05-23T05:00:15.145Z,101749.30
2018-05-23T05:02:40.892Z,101754.25
2018-05-23T05:05:06.912Z,101751.10
2018-05-23T05:07:33.096Z,101759.02
2018-05-23T05:09:58.863Z,101761.69
2018-05-23T05:12:24.612Z,101765.44
2018-05-23T05:14:50.375Z,101769.48
2018-05-23T05:17:16.118Z,101773.42
2018-05-23T05:19:41.867Z,101783.61
2018-05-23T05:22:07.611Z,101789.08
2018-05-23T05:24:33.418Z,101784.19
2018-05-23T05:26:59.207Z,101790.94
2018-05-23T05:29:25.095Z,101792.81
2018-05-23T05:31:50.922Z,101797.50
2018-05-23T05:34:16.655Z,101796.51
2018-05-23T05:36:42.447Z,101801.74
2018-05-23T05:39:08.192Z,101806.33
2018-05-23T05:41:33.955Z,101815.25
2018-05-23T05:43:59.691Z,101812.16
2018-05-23T05:46:25.489Z,101814.97
2018-05-23T05:48:51.244Z,101812.09
2018-05-23T05:51:17.013Z,101819.91
2018-05-23T05:53:42.790Z,101819.77
2018-05-23T05:56:08.537Z,101824.43
2018-05-23T05:58:34.282Z,101825.84
2018-05-23T06:01:00.065Z,101832.86
2018-05-23T06:03:25.805Z,101835.95
2018-05-23T06:05:51.652Z,101838.46
2018-05-23T06:08:17.403Z,101841.89
2018-05-23T06:10:43.498Z,101847.64
2018-05-23T06:13:09.244Z,101846.11
2018-05-23T06:15:34.999Z,101856.55
2018-05-23T06:18:00.743Z,101851.73
2018-05-23T06:20:26.600Z,101856.84
2018-05-23T06:22:52.356Z,101848.95
2018-05-23T06:25:18.111Z,101858.05
2018-05-23T06:27:43.884Z,101864.20
2018-05-23T06:30:09.628Z,101865.02
2018-05-23T06:32:35.417Z,101863.27
2018-05-23T06:35:01.187Z,101869.08
2018-05-23T06:37:27.111Z,101858.48
2018-05-23T06:39:52.859Z,101865.42
2018-05-23T06:42:18.704Z,101866.44
2018-05-23T06:44:44.447Z,101868.38
2018-05-23T06:47:10.479Z,101867.00
2018-05-23T06:49:36.229Z,101862.16
2018-05-23T06:52:02.032Z,101867.80
2018-05-23T06:54:27.800Z,101869.73
2018-05-23T06:56:53.719Z,101874.92
2018-05-23T06:59:19.479Z,101868.32
2018-05-23T07:01:45.255Z,101878.02
2018-05-23T07:04:10.999Z,101881.94
2018-05-23T07:06:36.767Z,101880.47
2018-05-23T07:09:02.539Z,101889.95
2018-05-23T07:11:28.344Z,101889.88
2018-05-23T07:13:54.187Z,101898.65
2018-05-23T07:16:20.043Z,101892.89
2018-05-23T07:18:45.782Z,101893.48
2018-05-23T07:21:11.519Z,101901.78
2018-05-23T07:23:37.296Z,101897.81
2018-05-23T07:26:03.080Z,101899.23
2018-05-23T07:28:28.842Z,101901.05
2018-05-23T07:30:54.623Z,101901.23
2018-05-23T07:33:20.368Z,101907.48
2018-05-23T07:35:46.123Z,101904.73
2018-05-23T07:38:11.872Z,101911.22
2018-05-23T07:40:37.643Z,101917.05
2018-05-23T07:43:03.444Z,101908.06
2018-05-23T07:45:29.244Z,101911.37
2018-05-23T07:47:55.039Z,101909.41
2018-05-23T07:50:20.787Z,101916.91
2018-05-23T07:52:46.572Z,101916.62
2018-05-23T07:55:12.361Z,101914.80
2018-05-23T07:57:38.116Z,101914.95
2018-05-23T08:00:03.874Z,101921.59
2018-05-23T08:02:29.645Z,101926.75
2018-05-23T08:04:55.394Z,101922.41
2018-05-23T08:07:21.193Z,101923.25
2018-05-23T08:09:46.932Z,101926.80
2018-05-23T08:12:12.706Z,101917.87
2018-05-23T08:14:38.468Z,101917.11
2018-05-23T08:17:04.228Z,101920.26
2018-05-23T08:19:29.996Z,101920.73
2018-05-23T08:21:55.800Z,101925.20
2018-05-23T08:24:21.584Z,101926.09
2018-05-23T08:26:47.518Z,101925.41
2018-05-23T08:29:13.534Z,101930.81
2018-05-23T08:31:39.311Z,101926.73
2018-05-23T08:34:05.071Z,101929.64
2018-05-23T08:36:30.941Z,101925.33
2018-05-23T08:38:56.699Z,101930.41
2018-05-23T08:41:22.503Z,101934.02
2018-05-23T08:43:48.252Z,101934.30
2018-05-23T08:46:14.067Z,101934.75
2018-05-23T08:48:39.844Z,101940.34
2018-05-23T08:51:05.603Z,101929.38
2018-05-23T08:53:31.371Z,101932.95
2018-05-23T08:55:57.139Z,101932.79
2018-05-23T08:58:22.920Z,101937.42
2018-05-23T09:00:48.664Z,101939.20
2018-05-23T09:03:14.703Z,101934.10
2018-05-23T09:05:40.462Z,101934.86
2018-05-23T09:08:06.212Z,101939.11
2018-05-23T09:10:32.124Z,101938.50
2018-05-23T09:12:57.947Z,101949.10
2018-05-23T09:15:23.727Z,101950.03
2018-05-23T09:17:49.472Z,101954.46
2018-05-23T09:20:15.216Z,101955.50
2018-05-23T09:22:40.976Z,101957.12
2018-05-23T09:25:06.968Z,101948.75
2018-05-23T09:27:32.873Z,101956.39
2018-05-23T09:29:58.637Z,101955.08
2018-05-23T09:32:24.410Z,101951.35
2018-05-23T09:34:50.223Z,101955.00
2018-05-23T09:37:16.016Z,101947.90
2018-05-23T09:39:41.806Z,101955.70
2018-05-23T09:42:07.554Z,101948.59
2018-05-23T09:44:33.300Z,101952.23
2018-05-23T09:46:59.079Z,101947.71
2018-05-23T09:49:24.852Z,101955.96
2018-05-23T09:51:50.624Z,101952.98
2018-05-23T09:54:16.368Z,101950.03
2018-05-23T09:56:42.207Z,101959.03
2018-05-23T09:59:07.971Z,101961.84
2018-05-23T10:01:33.747Z,101953.95
2018-05-23T10:03:59.483Z,101956.64
2018-05-23T10:06:25.228Z,101956.07
2018-05-23T10:08:50.997Z,101958.05
2018-05-23T10:11:16.756Z,101960.88
2018-05-23T10:13:42.524Z,101957.20
2018-05-23T10:16:08.303Z,101961.26
2018-05-23T10:18:34.055Z,101962.06
2018-05-23T10:20:59.811Z,101961.55
2018-05-23T10:23:25.565Z,101964.02
2018-05-23T10:25:51.360Z,101961.80
2018-05-23T10:28:17.104Z,101971.05
2018-05-23T10:30:42.868Z,101970.31
2018-05-23T10:33:08.623Z,101973.66
2018-05-23T10:35:34.516Z,101982.00
2018-05-23T10:38:00.281Z,101974.33
2018-05-23T10:40:26.059Z,101972.78
2018-05-23T10:42:51.812Z,101969.56
2018-05-23T10:45:17.659Z,101970.36
2018-05-23T10:47:43.435Z,101981.25
2018-05-23T10:50:09.276Z,101985.52
2018-05-23T10:52:35.075Z,101979.66
2018-05-23T10:55:00.827Z,101977.73
2018-05-23T10:57:26.656Z,101982.67
2018-05-23T10:59:52.415Z,101978.52
2018-05-23T11:02:18.227Z,101985.98
2018-05-23T11:04:44.024Z,101984.55
2018-05-23T11:07:09.804Z,101979.23
2018-05-23T11:09:35.575Z,101979.06
2018-05-23T11:12:01.358Z,101980.91
2018-05-23T11:14:27.159Z,101983.75
2018-05-23T11:16:52.939Z,101979.80
2018-05-23T11:19:18.683Z,101983.17
2018-05-23T11:21:44.611Z,101977.84
2018-05-23T11:24:10.384Z,101988.39
2018-05-23T11:26:36.132Z,101978.16
2018-05-23T11:29:01.875Z,101980.08
2018-05-23T11:31:27.899Z,101975.98
2018-05-23T11:33:53.644Z,101977.20
2018-05-23T11:36:19.421Z,101976.08
2018-05-23T11:38:45.168Z,101976.46
2018-05-23T11:41:10.911Z,101974.50
2018-05-23T11:43:36.652Z,101971.32
2018-05-23T11:46:02.466Z,101976.41
2018-05-23T11:48:28.298Z,101972.56
2018-05-23T11:50:54.060Z,101969.42
2018-05-23T11:53:19.856Z,101967.62
2018-05-23T11:55:45.627Z,101974.23
2018-05-23T11:58:11.467Z,101973.63
2018-05-23T12:00:37.219Z,101965.58
2018-05-23T12:03:03.040Z,101970.78
2018-05-23T12:05:28.810Z,101976.67
2018-05-23T12:07:54.672Z,101976.39
2018-05-23T12:10:20.486Z,101973.60
2018-05-23T12:12:46.236Z,101967.01
2018-05-23T12:15:11.973Z,101969.46
2018-05-23T12:17:37.724Z,101969.95
2018-05-23T12:20:03.477Z,101958.67
2018-05-23T12:22:29.255Z,101965.43
2018-05-23T12:24:55.311Z,101970.31
2018-05-23T12:27:21.056Z,101963.53
2018-05-23T12:29:46.831Z,101965.60
2018-05-23T12:32:12.587Z,101966.94
2018-05-23T12:34:38.335Z,101970.39
2018-05-23T12:37:04.124Z,101968.55
2018-05-23T12:39:29.878Z,101965.89
2018-05-23T12:41:55.647Z,101972.52
2018-05-23T12:44:21.528Z,101960.33
2018-05-23T12:46:47.415Z,101962.39
2018-05-23T12:49:13.161Z,101968.28
2018-05-23T12:51:38.914Z,101972.67
2018-05-23T12:54:04.668Z,101968.38
2018-05-23T12:56:30.451Z,101970.37
2018-05-23T12:58:56.199Z,101963.39
2018-05-23T13:01:21.996Z,101969.17
2018-05-23T13:03:47.860Z,101971.50
2018-05-23T13:06:13.632Z,101963.43
2018-05-23T13:08:39.377Z,101962.39
2018-05-23T13:11:05.178Z,101965.08
2018-05-23T13:13:31.991Z,101969.84
2018-05-23T13:15:57.816Z,101967.56
2018-05-23T13:18:30.497Z,101959.40
2018-05-23T13:20:56.273Z,101952.89
2018-05-23T13:23:22.047Z,101955.77
2018-05-23T13:25:47.977Z,101960.55
2018-05-23T13:28:13.697Z,101958.98
2018-05-23T13:30:39.462Z,101954.02
2018-05-23T13:33:05.243Z,101948.95
2018-05-23T13:35:31.007Z,101961.67
2018-05-23T13:37:56.761Z,101958.05
2018-05-23T13:40:22.517Z,101957.42
2018-05-23T13:42:48.436Z,101948.84
2018-05-23T13:45:14.192Z,101952.17
2018-05-23T13:47:39.987Z,101953.82
2018-05-23T13:50:05.732Z,101951.14
2018-05-23T13:52:31.503Z,101956.80
2018-05-23T13:54:57.257Z,101961.38
2018-05-23T13:57:23.044Z,101949.04
2018-05-23T13:59:48.811Z,101944.89
2018-05-23T14:02:14.580Z,101951.83
2018-05-23T14:04:40.348Z,101956.28
2018-05-23T14:07:06.122Z,101946.35
2018-05-23T14:09:31.934Z,101948.21
2018-05-23T14:11:57.692Z,101945.42
2018-05-23T14:14:23.479Z,101951.95
2018-05-23T14:16:49.263Z,101945.18
2018-05-23T14:19:15.113Z,101944.03
2018-05-23T14:21:40.806Z,101942.30
2018-05-23T14:24:06.555Z,101942.47
2018-05-23T14:26:32.363Z,101941.84
2018-05-23T14:28:58.126Z,101941.84
2018-05-23T14:31:23.996Z,101941.87
2018-05-23T14:33:49.744Z,101947.66
2018-05-23T14:36:15.492Z,101947.16
2018-05-23T14:38:41.276Z,101946.60
2018-05-23T14:41:07.071Z,101947.77
2018-05-23T14:43:32.897Z,101941.09
2018-05-23T14:45:58.627Z,101944.19
2018-05-23T14:48:24.387Z,101946.94
2018-05-23T14:50:50.132Z,101944.75
2018-05-23T14:53:15.875Z,101947.93
2018-05-23T14:55:41.624Z,101939.87
2018-05-23T14:58:07.399Z,101941.84
2018-05-23T15:00:33.151Z,101945.77
2018-05-23T15:02:58.923Z,101942.13
2018-05-23T15:05:24.695Z,101948.58
2018-05-23T15:07:50.811Z,101948.89
2018-05-23T15:10:16.559Z,101942.28
2018-05-23T15:12:42.323Z,101950.25
2018-05-23T15:15:08.088Z,101950.75
2018-05-23T15:17:33.835Z,101947.58
2018-05-23T15:19:59.746Z,101948.11
2018-05-23T15:22:25.380Z,101947.72
2018-05-23T15:24:51.144Z,101945.01
2018-05-23T15:27:16.938Z,101947.00
2018-05-23T15:29:42.692Z,101946.75
2018-05-23T15:32:08.449Z,101944.27
2018-05-23T15:34:34.408Z,101955.17
2018-05-23T15:37:00.223Z,101950.91
2018-05-23T15:39:26.127Z,101951.66
2018-05-23T15:41:51.862Z,101938.25
2018-05-23T15:44:17.615Z,101942.88
2018-05-23T15:49:38.346Z,101943.35
2018-05-23T15:52:04.100Z,101944.81
2018-05-23T15:54:29.863Z,101944.78
2018-05-23T15:56:55.870Z,101954.31
2018-05-23T15:59:21.640Z,101956.30
2018-05-23T16:01:47.391Z,101953.67
2018-05-23T16:04:13.175Z,101960.83
2018-05-23T16:06:39.173Z,101954.59
2018-05-23T16:09:04.942Z,101958.49
2018-05-23T16:11:30.696Z,101950.08
2018-05-23T16:13:56.471Z,101962.61
2018-05-23T16:16:22.240Z,101965.75
2018-05-23T16:18:48.111Z,101954.91
2018-05-23T16:21:13.859Z,101954.61
2018-05-23T16:23:39.631Z,101960.55
2018-05-23T16:26:05.375Z,101957.25
2018-05-23T16:28:31.192Z,101960.30
2018-05-23T16:30:56.935Z,101955.44
2018-05-23T16:33:22.740Z,101966.88
2018-05-23T16:35:48.603Z,101956.62
2018-05-23T16:38:14.388Z,101958.46
2018-05-23T16:40:40.152Z,101960.88
2018-05-23T16:43:05.927Z,101959.17
2018-05-23T16:45:31.686Z,101965.87
2018-05-23T16:47:57.435Z,101963.06
2018-05-23T16:50:23.222Z,101967.13
2018-05-23T16:52:48.960Z,101964.66
2018-05-23T16:55:14.715Z,101964.53
2018-05-23T16:57:40.472Z,101972.44
2018-05-23T17:00:06.240Z,101969.71
2018-05-23T17:02:32.047Z,101967.45
2018-05-23T17:04:57.897Z,101971.42
2018-05-23T17:07:23.737Z,101966.89
2018-05-23T17:09:49.540Z,101972.49
2018-05-23T17:12:15.285Z,101979.45
2018-05-23T17:14:41.075Z,101973.05
2018-05-23T17:17:06.867Z,101976.47
2018-05-23T17:19:32.637Z,101972.00
2018-05-23T17:21:58.475Z,101978.67
2018-05-23T17:24:24.222Z,101981.90
2018-05-23T17:26:50.007Z,101980.47
2018-05-23T17:29:15.800Z,101982.31
2018-05-23T17:31:41.704Z,101977.46
2018-05-23T17:34:07.480Z,101982.77
2018-05-23T17:36:33.230Z,101977.12
2018-05-23T17:38:59.015Z,101985.83
2018-05-23T17:41:24.796Z,101980.02
2018-05-23T17:43:50.566Z,101983.23
2018-05-23T17:46:16.480Z,101991.36
2018-05-23T17:48:42.228Z,101991.00
2018-05-23T17:51:07.995Z,101987.40
2018-05-23T17:53:33.731Z,101995.86
2018-05-23T17:55:59.511Z,101997.45
2018-05-23T17:58:25.267Z,101995.36
2018-05-23T18:00:51.067Z,101996.41
2018-05-23T18:03:16.807Z,101998.84
2018-05-23T18:05:42.575Z,102002.78
2018-05-23T18:08:08.335Z,102002.11
2018-05-23T18:10:34.106Z,101994.86
2018-05-23T18:12:59.871Z,101990.83
2018-05-23T18:15:25.680Z,102002.30
2018-05-23T18:17:51.472Z,102006.57
2018-05-23T18:20:17.252Z,102005.27
2018-05-23T18:22:43.008Z,102009.50
2018-05-23T18:25:08.783Z,102004.47
2018-05-23T18:27:34.519Z,102012.02
2018-05-23T18:30:00.290Z,102014.78
2018-05-23T18:32:26.080Z,102013.36
2018-05-23T18:34:51.888Z,102018.25
2018-05-23T18:37:17.657Z,102009.13
2018-05-23T18:39:43.440Z,102017.73
2018-05-23T18:42:09.225Z,102019.25
2018-05-23T18:44:34.995Z,102021.03
2018-05-23T18:47:00.839Z,102023.33
2018-05-23T18:49:26.606Z,102022.72
2018-05-23T18:51:52.416Z,102036.14
2018-05-23T18:54:18.201Z,102036.50
2018-05-23T18:56:43.999Z,102027.67
2018-05-23T18:59:09.762Z,102034.21
2018-05-23T19:01:35.533Z,102045.65
2018-05-23T19:04:01.285Z,102043.15
2018-05-23T19:06:27.127Z,102037.86
2018-05-23T19:08:53.057Z,102042.06
2018-05-23T19:11:18.998Z,102036.03
2018-05-23T19:13:44.758Z,102036.04
2018-05-23T19:16:10.537Z,102041.46
2018-05-23T19:18:36.498Z,102042.18
2018-05-23T19:21:02.287Z,102044.38
2018-05-23T19:23:28.030Z,102048.99
2018-05-23T19:25:53.790Z,102054.95
2018-05-23T19:28:19.539Z,102053.22
2018-05-23T19:30:45.419Z,102047.59
2018-05-23T19:33:11.307Z,102056.30
2018-05-23T19:35:37.135Z,102050.37
2018-05-23T19:38:02.905Z,102056.56
2018-05-23T19:40:28.791Z,102062.72
2018-05-23T19:42:54.556Z,102060.47
2018-05-23T19:45:20.380Z,102064.14
2018-05-23T19:47:46.140Z,102070.41
2018-05-23T19:50:11.919Z,102067.91
2018-05-23T19:52:37.761Z,102081.08
2018-05-23T19:55:04.059Z,102074.76
2018-05-23T19:57:29.899Z,102084.31
2018-05-23T19:59:55.723Z,102084.82
2018-05-23T20:02:21.548Z,102085.75
2018-05-23T20:04:47.298Z,102082.64
2018-05-23T20:07:13.048Z,102083.22
2018-05-23T20:09:38.844Z,102083.12
2018-05-23T20:12:04.648Z,102080.81
2018-05-23T20:14:30.472Z,102083.73
2018-05-23T20:16:56.431Z,102085.73
2018-05-23T20:19:22.216Z,102083.95
2018-05-23T20:21:48.117Z,102091.80
2018-05-23T20:24:13.894Z,102093.88
2018-05-23T20:26:39.664Z,102095.42
2018-05-23T20:29:05.436Z,102095.42
2018-05-23T20:31:31.228Z,102093.56
2018-05-23T20:33:56.971Z,102102.03
2018-05-23T20:36:22.727Z,102099.09
2018-05-23T20:38:48.530Z,102100.41
2018-05-23T20:41:14.275Z,102099.40
2018-05-23T20:43:40.087Z,102106.02
2018-05-23T20:46:05.850Z,102107.83
2018-05-23T20:48:31.880Z,102106.31
2018-05-23T20:50:57.631Z,102106.53
2018-05-23T20:53:23.741Z,102103.20
2018-05-23T20:55:49.500Z,102105.26
2018-05-23T20:58:15.315Z,102109.00
2018-05-23T21:00:41.060Z,102112.80
2018-05-23T21:03:06.843Z,102118.48
2018-05-23T21:05:32.690Z,102122.41
2018-05-23T21:07:58.419Z,102118.66
2018-05-23T21:10:24.155Z,102120.46
2018-05-23T21:12:49.915Z,102121.17
2018-05-23T21:15:15.690Z,102126.19
2018-05-23T21:17:41.452Z,102123.31
2018-05-23T21:20:07.195Z,102122.22
2018-05-23T21:22:32.963Z,102124.27
2018-05-23T21:24:58.818Z,102124.87
2018-05-23T21:27:24.876Z,102123.33
2018-05-23T21:29:50.620Z,102122.47
2018-05-23T21:32:16.479Z,102123.25
2018-05-23T21:34:42.223Z,102121.80
2018-05-23T21:37:07.965Z,102119.61
2018-05-23T21:39:33.712Z,102125.60
2018-05-23T21:41:59.555Z,102118.88
2018-05-23T21:44:25.338Z,102123.70
2018-05-23T21:46:51.119Z,102117.33
2018-05-23T21:49:16.872Z,102121.84
2018-05-23T21:51:42.778Z,102124.88
2018-05-23T21:54:08.571Z,102126.73
2018-05-23T21:56:34.363Z,102118.86
2018-05-23T21:59:00.116Z,102122.39
2018-05-23T22:01:25.931Z,102120.25
2018-05-23T22:03:51.851Z,102123.84
2018-05-23T22:06:17.916Z,102116.76
2018-05-23T22:08:43.685Z,102124.16
2018-05-23T22:11:09.556Z,102130.18
2018-05-23T22:13:35.741Z,102129.52
2018-05-23T22:16:01.484Z,102127.64
2018-05-23T22:18:27.367Z,102131.16
2018-05-23T22:20:53.110Z,102134.91
2018-05-23T22:23:18.999Z,102130.17
2018-05-23T22:25:44.836Z,102126.44
2018-05-23T22:28:10.595Z,102129.47
2018-05-23T22:30:36.359Z,102125.30
2018-05-23T22:33:02.131Z,102127.97
2018-05-23T22:35:27.884Z,102129.64
2018-05-23T22:37:53.888Z,102125.39
2018-05-23T22:40:19.768Z,102128.13
2018-05-23T22:42:45.519Z,102127.72
2018-05-23T22:45:11.285Z,102127.61
2018-05-23T22:47:37.280Z,102130.19
2018-05-23T22:50:03.051Z,102123.77
2018-05-23T22:52:28.872Z,102130.84
2018-05-23T22:54:54.771Z,102132.59
2018-05-23T22:57:20.547Z,102130.16
2018-05-23T22:59:46.312Z,102131.83
2018-05-23T23:02:12.228Z,102131.56
2018-05-23T23:04:37.994Z,102133.58
2018-05-23T23:07:03.741Z,102130.66
2018-05-23T23:09:29.536Z,102130.78
2018-05-23T23:11:55.276Z,102132.42
2018-05-23T23:14:21.048Z,102133.17
2018-05-23T23:16:46.809Z,102131.86
2018-05-23T23:19:12.615Z,102133.03
2018-05-23T23:21:38.389Z,102132.70
2018-05-23T23:24:04.160Z,102124.61
2018-05-23T23:26:29.919Z,102132.77
2018-05-23T23:28:55.683Z,102134.91
2018-05-23T23:31:21.512Z,102126.58
2018-05-23T23:33:47.283Z,102139.25
2018-05-23T23:36:13.033Z,102140.64
2018-05-23T23:38:38.785Z,102136.03
2018-05-23T23:41:04.560Z,102136.84
2018-05-23T23:43:30.323Z,102131.28
2018-05-23T23:45:56.116Z,102134.67
2018-05-23T23:48:22.064Z,102138.37
2018-05-23T23:50:47.878Z,102139.55
2018-05-23T23:53:13.648Z,102135.31
2018-05-23T23:55:39.412Z,102138.02
2018-05-23T23:58:05.162Z,102138.16
